CYTS

Timmins Victor M. Power Airport

Airport
ICAO code
CYTS
Summary
ICAO Region
NAM
ICAO Territory
Location

Timmins, Ontario,

Coordinates
48° 34' 11" N , 81° 22' 36" W
KCC
Dfb
Airport BS
Bird Strike
Airport CFIT
Altimeter Temperature Error Correction
Airport GND
Aircraft Ground De/Anti Icing
Airport RE
Landing on Contaminated Runways
Metar
Observation
CYTS 110700Z 28005KT 15SM FEW020 10/09 A3007 RMK SC1 SLP187
Station
Timmins, Ont.
Date/Time
2022-08-11 07:00:00
Wind direction
280°
Wind speed
05 kts
Lowest cloud amount
few clouds
Temperature
10°C
Dew point
9°C
Humidity
93%
Weather condition
n/a

Description

Regional airport located 6 miles northwest of Timmins, Ontario, Canada.

Climatology

Humid Continental climate (Köppen climate classification Dfb) - Variable weather patterns and a large seasonal temperature variance. Summers are often warm and humid with frequent thunderstorms and winters can be very cold with frequent snowfall and persistent snow cover.

Runways

Designator Length Width Surface Rops
10/28 1494 46 ASP Yes/Yes
3/21 1829 46 ASP Yes/Yes

Airport map

Aerial View

SKYbrary Partners:

Safety knowledge contributed by: